Time;durP1;ratioP1;P1;durP2;ratioP2;P2;SDS_P1;SDS_P2;PMS_P1;PMS_P2;Temp;Humidity;BMP_temperature;BMP_pressure;BME280_temperature;BME280_humidity;BME280_pressure;Samples;Min_cycle;Max_cycle;Signal;HPM_P1;HPM_P2
2022/10/24 00:01:29;;;;;;;3.72;2.08;;;;;;;16.78;100.00;98052.97;4124172;28;20209;-48
2022/10/24 00:03:31;;;;;;;4.38;1.45;;;;;;;16.87;100.00;98051.16;4120717;28;20218;-48
2022/10/24 00:05:32;;;;;;;6.57;1.92;;;;;;;16.77;100.00;98058.81;4121832;28;20714;-48
2022/10/24 00:07:34;;;;;;;1.80;1.50;;;;;;;16.77;100.00;98053.28;4119828;28;20209;-49
2022/10/24 00:09:36;;;;;;;2.03;1.20;;;;;;;16.79;100.00;98051.84;4137835;28;20202;-49
2022/10/24 00:11:40;;;;;;;2.90;1.67;;;;;;;16.79;100.00;98060.16;4122913;28;22231;-48
2022/10/24 00:13:42;;;;;;;2.95;1.95;;;;;;;16.81;100.00;98057.91;4122241;28;20198;-49
2022/10/24 00:15:47;;;;;;;2.75;1.70;;;;;;;16.87;100.00;98056.69;4109114;28;20230;-48
2022/10/24 00:17:48;;;;;;;8.07;1.65;;;;;;;16.87;100.00;98051.16;4136925;28;20209;-48
2022/10/24 00:19:53;;;;;;;7.22;2.35;;;;;;;16.87;100.00;98044.78;4119292;28;20230;-48
2022/10/24 00:21:54;;;;;;;6.75;1.83;;;;;;;17.10;100.00;98039.13;4122362;28;20296;-49
2022/10/24 00:23:56;;;;;;;3.25;1.67;;;;;;;17.06;100.00;98035.34;4114288;28;20206;-49
2022/10/24 00:26:00;;;;;;;1.77;1.63;;;;;;;17.08;100.00;98035.06;4133592;28;20700;-50
2022/10/24 00:28:02;;;;;;;2.13;1.77;;;;;;;17.14;100.00;98040.19;4107424;28;20211;-49
2022/10/24 00:30:05;;;;;;;5.85;2.78;;;;;;;17.07;100.00;98050.81;4120548;28;20241;-49
2022/10/24 00:32:06;;;;;;;3.60;1.75;;;;;;;17.13;100.00;98039.34;4122729;28;20210;-49
2022/10/24 00:34:08;;;;;;;2.15;1.60;;;;;;;17.08;100.00;98045.00;4135765;28;20219;-48
2022/10/24 00:36:15;;;;;;;2.63;1.50;;;;;;;17.07;100.00;98037.00;4114759;28;20725;-48
2022/10/24 00:38:20;;;;;;;1.75;1.45;;;;;;;17.04;100.00;98024.59;4114601;28;20617;-49
2022/10/24 00:40:21;;;;;;;4.57;1.90;;;;;;;17.02;100.00;98034.31;4119027;28;20597;-49
2022/10/24 00:42:23;;;;;;;3.08;1.48;;;;;;;17.00;100.00;98028.28;4113440;28;20203;-48
2022/10/24 00:44:27;;;;;;;6.22;1.45;;;;;;;17.17;100.00;98025.75;4123480;28;20225;-47
2022/10/24 00:46:30;;;;;;;3.78;1.15;;;;;;;17.11;100.00;98030.53;4132772;28;20663;-48
2022/10/24 00:48:52;;;;;;;12.82;1.15;;;;;;;16.98;100.00;98025.00;4133523;28;20656;-49
2022/10/24 00:50:58;;;;;;;3.00;2.05;;;;;;;17.10;100.00;98033.59;4134186;28;20289;-49
2022/10/24 00:53:00;;;;;;;6.97;1.83;;;;;;;17.20;100.00;98028.72;4119464;28;20314;-49
2022/10/24 00:55:03;;;;;;;6.32;1.52;;;;;;;17.14;100.00;98037.41;4120828;28;20237;-49
2022/10/24 00:57:15;;;;;;;3.00;1.40;;;;;;;17.07;100.00;98028.69;4104943;28;20253;-50
2022/10/24 00:59:18;;;;;;;1.95;1.52;;;;;;;17.14;100.00;98029.97;4118514;28;20281;-48
2022/10/24 01:01:20;;;;;;;4.85;2.05;;;;;;;17.12;100.00;98031.38;4120096;28;20592;-48
2022/10/24 01:03:22;;;;;;;5.45;2.03;;;;;;;17.08;100.00;98021.25;4120676;28;20218;-48
2022/10/24 01:05:27;;;;;;;3.90;1.90;;;;;;;17.08;100.00;98033.09;4120501;28;20618;-49
2022/10/24 01:07:35;;;;;;;2.47;1.40;;;;;;;17.08;100.00;98025.63;4137126;28;20675;-48
2022/10/24 01:09:55;;;;;;;2.35;2.13;;;;;;;17.08;100.00;98016.50;4124220;28;20283;-50
2022/10/24 01:12:05;;;;;;;1.38;1.20;;;;;;;17.02;100.00;98026.00;4123779;28;20209;-50
2022/10/24 01:14:16;;;;;;;2.67;1.10;;;;;;;17.03;100.00;98016.59;4127012;28;20301;-50
2022/10/24 01:16:32;;;;;;;2.55;1.55;;;;;;;16.99;100.00;98010.84;4126094;28;20217;-50
2022/10/24 01:18:49;;;;;;;4.65;1.55;;;;;;;16.98;100.00;98011.19;4127712;28;20672;-49
2022/10/24 01:21:02;;;;;;;4.90;2.65;;;;;;;17.02;100.00;98017.72;4125925;28;20948;-49
2022/10/24 01:23:25;;;;;;;11.85;3.47;;;;;;;16.95;100.00;98020.06;4122886;28;20480;-50
2022/10/24 01:25:45;;;;;;;7.32;3.30;;;;;;;17.04;100.00;98015.47;4127519;28;20232;-49
2022/10/24 01:27:55;;;;;;;1.60;1.50;;;;;;;17.03;100.00;98013.81;4128259;28;20210;-48
2022/10/24 01:30:10;;;;;;;3.28;1.20;;;;;;;16.98;100.00;98009.22;4138850;28;20699;-49
2022/10/24 01:32:30;;;;;;;2.88;1.98;;;;;;;16.98;100.00;98019.47;4121398;28;20215;-48
2022/10/24 01:34:37;;;;;;;2.88;1.40;;;;;;;16.99;100.00;98015.56;4121868;28;20254;-49
2022/10/24 01:36:46;;;;;;;2.05;1.58;;;;;;;17.10;100.00;98014.25;4122068;28;20224;-48
2022/10/24 01:38:53;;;;;;;4.40;1.10;;;;;;;16.98;100.00;98015.88;4127251;28;20217;-49
2022/10/24 01:40:58;;;;;;;2.15;1.50;;;;;;;16.96;100.00;98021.69;4103740;28;20306;-49
2022/10/24 01:43:07;;;;;;;3.40;1.83;;;;;;;17.04;100.00;98024.59;4122112;28;20827;-49
2022/10/24 01:45:11;;;;;;;2.13;1.45;;;;;;;17.04;100.00;98018.22;4126565;28;20230;-49
2022/10/24 01:47:22;;;;;;;2.00;1.25;;;;;;;17.02;100.00;98015.78;4137870;28;20209;-49
2022/10/24 01:49:27;;;;;;;11.75;2.42;;;;;;;16.97;100.00;98028.88;4123171;28;20214;-48
2022/10/24 01:51:31;;;;;;;2.65;1.10;;;;;;;16.94;100.00;98023.94;4112793;28;20217;-48
2022/10/24 01:53:33;;;;;;;1.17;1.15;;;;;;;16.89;100.00;98026.00;4122794;28;20206;-49
2022/10/24 01:55:35;;;;;;;3.83;1.58;;;;;;;16.89;100.00;98021.25;4106244;28;20227;-48
2022/10/24 01:57:38;;;;;;;2.90;2.10;;;;;;;16.96;100.00;98021.69;4106118;28;20213;-48
2022/10/24 01:59:47;;;;;;;1.30;1.20;;;;;;;17.05;100.00;98030.97;4124402;28;20208;-49
2022/10/24 02:01:49;;;;;;;4.70;1.55;;;;;;;17.04;100.00;98023.75;4126375;28;20229;-48
2022/10/24 02:03:56;;;;;;;3.13;1.90;;;;;;;16.96;100.00;98021.69;4135482;28;21092;-48
2022/10/24 02:06:07;;;;;;;3.05;1.58;;;;;;;16.84;100.00;98024.09;4126052;28;20651;-49
2022/10/24 02:08:17;;;;;;;9.43;1.95;;;;;;;16.79;100.00;98021.47;4124847;28;20216;-49
2022/10/24 02:10:25;;;;;;;2.33;1.58;;;;;;;16.81;100.00;98023.91;4119107;28;20198;-48
2022/10/24 02:12:27;;;;;;;4.90;2.17;;;;;;;16.77;100.00;98015.38;4125499;28;20215;-49
2022/10/24 02:14:33;;;;;;;5.40;2.33;;;;;;;16.80;100.00;98028.63;4133914;28;20296;-49
2022/10/24 02:16:34;;;;;;;3.30;2.08;;;;;;;16.80;100.00;98017.56;4122823;28;20771;-50
2022/10/24 02:18:38;;;;;;;2.83;1.92;;;;;;;16.77;100.00;98018.16;4118886;28;20654;-48
2022/10/24 02:20:48;;;;;;;3.63;2.70;;;;;;;16.76;100.00;98010.97;4118780;28;20214;-49
2022/10/24 02:22:57;;;;;;;3.50;2.28;;;;;;;16.68;100.00;98014.44;4119470;28;20210;-51
2022/10/24 02:25:04;;;;;;;2.42;1.15;;;;;;;16.70;100.00;98012.19;4125932;28;20205;-50
2022/10/24 02:27:11;;;;;;;4.47;1.73;;;;;;;16.69;100.00;98016.09;4126011;28;20227;-49
2022/10/24 02:29:17;;;;;;;4.55;1.52;;;;;;;16.68;100.00;98008.91;4123624;28;20224;-47
2022/10/24 02:31:21;;;;;;;4.07;3.33;;;;;;;16.69;100.00;98010.56;4100558;28;20749;-46
2022/10/24 02:33:25;;;;;;;3.03;2.15;;;;;;;16.68;100.00;98008.13;4107195;28;20233;-48
2022/10/24 02:35:32;;;;;;;2.92;1.83;;;;;;;16.77;100.00;98007.09;4125489;28;20236;-50
2022/10/24 02:37:35;;;;;;;2.78;1.98;;;;;;;16.74;100.00;98004.94;4103116;28;20217;-51
2022/10/24 02:39:38;;;;;;;2.15;1.90;;;;;;;16.79;100.00;98010.41;4137600;28;20201;-50
2022/10/24 02:41:41;;;;;;;4.18;1.75;;;;;;;16.81;100.00;98002.63;4117107;28;20235;-49
2022/10/24 02:43:43;;;;;;;5.20;1.80;;;;;;;16.83;100.00;98010.63;4121434;28;20221;-49
2022/10/24 02:45:46;;;;;;;5.75;2.67;;;;;;;16.76;100.00;98005.47;4103479;28;20281;-50
2022/10/24 02:47:49;;;;;;;3.97;1.67;;;;;;;16.77;100.00;98017.34;4124709;28;20866;-48
2022/10/24 02:49:50;;;;;;;5.57;1.98;;;;;;;16.76;100.00;98015.72;4118463;28;20647;-48
2022/10/24 02:51:52;;;;;;;3.97;2.58;;;;;;;16.75;100.00;98009.34;4121747;28;20301;-49
2022/10/24 02:53:55;;;;;;;8.73;1.80;;;;;;;16.78;100.00;97997.72;4124242;28;20244;-49
2022/10/24 02:55:56;;;;;;;2.97;1.83;;;;;;;16.73;100.00;97996.97;4125463;28;20655;-49
2022/10/24 02:57:58;;;;;;;1.80;1.52;;;;;;;16.70;100.00;98001.13;4121791;28;20611;-48
2022/10/24 03:00:00;;;;;;;3.58;2.25;;;;;;;16.73;100.00;97999.72;4121988;28;20297;-48
2022/10/24 03:02:01;;;;;;;4.07;2.42;;;;;;;16.73;100.00;98003.31;4138504;28;20230;-50
2022/10/24 03:04:04;;;;;;;3.10;2.03;;;;;;;16.66;100.00;98002.88;4123944;28;20197;-49
2022/10/24 03:06:05;;;;;;;3.15;2.85;;;;;;;16.66;100.00;98002.03;4109147;28;20241;-50
2022/10/24 03:08:07;;;;;;;2.45;1.40;;;;;;;16.59;100.00;97999.69;4120532;28;20210;-50
2022/10/24 03:10:09;;;;;;;3.25;2.22;;;;;;;16.54;100.00;98005.28;4121037;28;20286;-51
2022/10/24 03:12:16;;;;;;;3.28;1.63;;;;;;;16.54;100.00;98005.28;4119861;28;20541;-49
2022/10/24 03:14:18;;;;;;;2.80;1.55;;;;;;;16.54;100.00;98013.56;4118889;28;20285;-50
2022/10/24 03:16:19;;;;;;;2.35;1.75;;;;;;;16.59;100.00;98016.25;4125131;28;20226;-51
2022/10/24 03:18:21;;;;;;;2.75;1.73;;;;;;;16.53;100.00;98033.19;4119656;28;20219;-48
2022/10/24 03:20:26;;;;;;;2.58;1.85;;;;;;;16.53;100.00;98039.56;4124904;28;20212;-48
2022/10/24 03:22:27;;;;;;;5.13;2.03;;;;;;;16.56;100.00;98030.66;4120307;28;20852;-49
2022/10/24 03:24:31;;;;;;;9.27;1.70;;;;;;;16.54;100.00;98024.63;4116899;28;20214;-48
2022/10/24 03:26:44;;;;;;;7.18;1.60;;;;;;;16.57;100.00;98026.78;4121715;28;20312;-49
2022/10/24 03:28:46;;;;;;;1.77;1.45;;;;;;;16.55;100.00;98031.78;4107220;28;20221;-50
2022/10/24 03:30:47;;;;;;;3.15;2.00;;;;;;;16.52;100.00;98037.91;4124362;28;20225;-48
2022/10/24 03:32:49;;;;;;;6.95;1.80;;;;;;;16.54;100.00;98024.63;4108714;28;20527;-48
2022/10/24 03:34:51;;;;;;;5.95;2.13;;;;;;;16.53;100.00;98028.50;4120115;28;21049;-51
2022/10/24 03:36:52;;;;;;;5.10;2.30;;;;;;;16.51;100.00;98030.75;4122651;28;20217;-49
2022/10/24 03:38:54;;;;;;;5.47;3.05;;;;;;;16.48;100.00;98027.75;4124818;28;20218;-50
2022/10/24 03:40:56;;;;;;;4.03;2.00;;;;;;;16.43;100.00;98023.13;4119284;28;20230;-49
2022/10/24 03:42:58;;;;;;;4.63;2.42;;;;;;;16.46;100.00;98022.53;4115901;28;20217;-49
2022/10/24 03:45:00;;;;;;;2.75;1.88;;;;;;;16.46;100.00;98030.00;4120067;28;20206;-49
2022/10/24 03:47:01;;;;;;;2.88;2.45;;;;;;;16.40;100.00;98023.75;4113014;28;20207;-50
2022/10/24 03:49:03;;;;;;;2.13;1.33;;;;;;;16.46;100.00;98011.50;4118439;28;20301;-50
2022/10/24 03:51:04;;;;;;;4.20;2.13;;;;;;;16.45;100.00;98018.16;4134734;28;20206;-49
2022/10/24 03:53:07;;;;;;;4.85;1.75;;;;;;;16.44;100.00;98019.25;4115225;28;20207;-49
2022/10/24 03:55:09;;;;;;;1.88;1.58;;;;;;;16.42;100.00;98027.00;4131417;28;20213;-49
2022/10/24 03:57:11;;;;;;;2.53;1.20;;;;;;;16.29;100.00;98027.72;4124531;28;20204;-49
2022/10/24 03:59:26;;;;;;;6.90;2.10;;;;;;;16.16;100.00;98035.94;4121366;28;20314;-49
2022/10/24 04:01:35;;;;;;;4.10;2.03;;;;;;;16.15;100.00;98032.34;4136630;28;20221;-51
2022/10/24 04:03:37;;;;;;;2.17;1.65;;;;;;;16.05;100.00;98035.28;4123099;28;20241;-49
2022/10/24 04:05:39;;;;;;;2.80;1.50;;;;;;;16.09;100.00;98039.06;4120361;28;20591;-49
2022/10/24 04:07:41;;;;;;;5.75;2.75;;;;;;;16.12;100.00;98032.97;4118573;28;20214;-49
2022/10/24 04:09:43;;;;;;;3.90;2.35;;;;;;;16.06;100.00;98039.66;4115598;28;20240;-50
2022/10/24 04:11:46;;;;;;;4.93;1.50;;;;;;;16.08;100.00;98031.91;4117566;28;20705;-49
2022/10/24 04:13:47;;;;;;;6.80;1.80;;;;;;;16.09;100.00;98030.78;4105454;28;20214;-50
2022/10/24 04:15:49;;;;;;;6.05;1.70;;;;;;;16.03;100.00;98029.19;4109586;28;20234;-49
2022/10/24 04:17:51;;;;;;;3.20;1.88;;;;;;;16.02;100.00;98038.59;4101383;28;20674;-50
2022/10/24 04:19:52;;;;;;;2.13;1.30;;;;;;;16.06;100.00;98033.31;4119511;28;20213;-49
2022/10/24 04:21:54;;;;;;;7.03;2.47;;;;;;;16.05;100.00;98023.41;4117814;28;20309;-49
2022/10/24 04:23:56;;;;;;;4.18;2.55;;;;;;;16.10;100.00;98029.66;4119245;28;20269;-49
2022/10/24 04:25:57;;;;;;;5.45;2.88;;;;;;;16.19;100.00;98033.41;4118469;28;20233;-49
2022/10/24 04:27:59;;;;;;;2.67;2.10;;;;;;;16.16;100.00;98039.50;4121015;28;20214;-50
2022/10/24 04:30:01;;;;;;;4.78;2.22;;;;;;;16.18;100.00;98026.25;4124616;28;20212;-51
2022/10/24 04:32:02;;;;;;;3.88;2.78;;;;;;;16.14;100.00;98041.75;4117874;28;20206;-49
2022/10/24 04:34:05;;;;;;;4.47;2.67;;;;;;;16.08;100.00;98040.19;4136744;28;20205;-50
2022/10/24 04:36:06;;;;;;;5.50;2.10;;;;;;;16.15;100.00;98042.59;4120560;28;20230;-49
2022/10/24 04:38:08;;;;;;;4.88;3.22;;;;;;;16.20;100.00;98035.06;4124207;28;20206;-49
2022/10/24 04:40:10;;;;;;;6.03;2.10;;;;;;;16.16;100.00;98038.72;4097880;28;20243;-48
2022/10/24 04:42:12;;;;;;;3.38;1.45;;;;;;;16.21;100.00;98046.91;4123992;28;20316;-50
2022/10/24 04:44:13;;;;;;;2.28;1.90;;;;;;;16.18;100.00;98051.09;4125087;28;20232;-49
2022/10/24 04:46:15;;;;;;;5.30;3.03;;;;;;;16.15;100.00;98042.59;4123556;28;20242;-48
2022/10/24 04:48:17;;;;;;;1.92;1.33;;;;;;;16.22;100.00;98048.56;4119898;28;20211;-50
2022/10/24 04:50:18;;;;;;;3.85;1.00;;;;;;;16.19;100.00;98049.16;4110051;28;20206;-49
2022/10/24 04:52:20;;;;;;;8.73;1.55;;;;;;;16.14;100.00;98047.28;4139190;28;20201;-49
2022/10/24 04:54:22;;;;;;;4.25;2.05;;;;;;;16.13;100.00;98051.16;4123563;28;20210;-49
2022/10/24 04:56:25;;;;;;;4.43;1.70;;;;;;;16.15;100.00;98043.41;4139060;28;20229;-49
2022/10/24 04:58:27;;;;;;;5.00;2.13;;;;;;;16.33;100.00;98039.84;4115184;28;21027;-49
2022/10/24 05:00:29;;;;;;;1.98;1.77;;;;;;;16.39;100.00;98048.88;4103524;28;20221;-50
2022/10/24 05:02:30;;;;;;;3.45;1.67;;;;;;;16.41;100.00;98050.22;4123951;28;20228;-49
2022/10/24 05:04:32;;;;;;;2.33;1.42;;;;;;;16.43;100.00;98042.47;4123669;28;20636;-49
2022/10/24 05:06:34;;;;;;;4.70;2.17;;;;;;;16.59;100.00;98043.88;4121503;28;20278;-49
2022/10/24 05:08:36;;;;;;;2.60;2.13;;;;;;;16.64;100.00;98041.03;4118681;28;20213;-50
2022/10/24 05:10:37;;;;;;;8.00;1.95;;;;;;;16.62;100.00;98037.75;4120257;28;20202;-49
2022/10/24 05:12:39;;;;;;;4.65;2.50;;;;;;;16.64;100.00;98043.78;4116661;28;20661;-49
2022/10/24 05:14:41;;;;;;;3.67;1.65;;;;;;;16.75;100.00;98045.28;4105691;28;20282;-49
2022/10/24 05:16:43;;;;;;;2.53;2.33;;;;;;;16.90;100.00;98039.50;4123106;28;20348;-48
2022/10/24 05:18:45;;;;;;;4.65;1.98;;;;;;;16.87;100.00;98051.16;4119177;28;20208;-49
2022/10/24 05:20:46;;;;;;;8.20;2.53;;;;;;;16.93;100.00;98049.97;4120931;28;20242;-49
2022/10/24 05:22:48;;;;;;;4.22;2.28;;;;;;;16.82;100.00;98050.44;4119258;28;20222;-49
2022/10/24 05:24:49;;;;;;;4.75;2.10;;;;;;;16.81;100.00;98052.38;4138680;28;20228;-48
2022/10/24 05:26:51;;;;;;;3.70;3.08;;;;;;;16.70;100.00;98050.88;4119884;28;20577;-48
2022/10/24 05:28:56;;;;;;;2.70;1.67;;;;;;;16.77;100.00;98054.06;4118959;28;20202;-46
2022/10/24 05:30:58;;;;;;;4.40;2.42;;;;;;;16.68;100.00;98064.19;4106688;28;20724;-46
2022/10/24 05:32:59;;;;;;;1.90;1.70;;;;;;;16.77;100.00;98064.31;4109092;28;20244;-47
2022/10/24 05:35:01;;;;;;;3.63;2.13;;;;;;;16.76;100.00;98074.53;4116577;28;20417;-50
2022/10/24 05:37:03;;;;;;;2.88;1.58;;;;;;;16.66;100.00;98063.66;4138141;28;20231;-47
2022/10/24 05:39:05;;;;;;;3.67;2.35;;;;;;;16.59;100.00;98063.22;4124165;28;20213;-47
2022/10/24 05:41:06;;;;;;;2.30;1.60;;;;;;;16.62;100.00;98065.38;4118043;28;20211;-47
2022/10/24 05:43:08;;;;;;;4.68;2.28;;;;;;;16.56;100.00;98072.09;4120944;28;20209;-49
2022/10/24 05:45:10;;;;;;;6.85;2.55;;;;;;;16.56;100.00;98066.56;4125804;28;21033;-48
2022/10/24 05:47:12;;;;;;;2.58;2.00;;;;;;;16.68;100.00;98061.41;4118800;28;20215;-49
2022/10/24 05:49:13;;;;;;;3.42;1.83;;;;;;;16.62;100.00;98070.91;4123830;28;20766;-48
2022/10/24 05:51:15;;;;;;;4.88;2.00;;;;;;;16.69;100.00;98071.34;4117006;28;20214;-47
2022/10/24 05:53:17;;;;;;;3.67;2.03;;;;;;;16.64;100.00;98074.19;4121349;28;20211;-48
2022/10/24 05:55:18;;;;;;;5.53;2.75;;;;;;;16.57;100.00;98079.25;4135602;28;20229;-48
2022/10/24 05:57:20;;;;;;;1.30;1.20;;;;;;;16.48;100.00;98085.75;4126837;28;20891;-48
2022/10/24 05:59:22;;;;;;;6.57;1.90;;;;;;;16.47;100.00;98084.94;4126875;28;20213;-48
2022/10/24 06:01:23;;;;;;;5.13;2.35;;;;;;;16.51;100.00;98091.53;4119226;28;20198;-47
2022/10/24 06:03:25;;;;;;;6.93;2.97;;;;;;;16.47;100.00;98090.47;4124692;28;20266;-47
2022/10/24 06:05:27;;;;;;;4.07;2.10;;;;;;;16.54;100.00;98096.44;4124884;28;20309;-47
2022/10/24 06:07:30;;;;;;;3.72;1.83;;;;;;;16.57;100.00;98087.53;4125740;28;20213;-48
2022/10/24 06:09:32;;;;;;;2.75;1.92;;;;;;;16.58;100.00;98091.97;4119877;28;20202;-48
2022/10/24 06:11:33;;;;;;;2.67;1.65;;;;;;;16.59;100.00;98082.56;4122533;28;20282;-47
2022/10/24 06:13:35;;;;;;;10.70;2.70;;;;;;;16.58;100.00;98085.63;4122927;28;20233;-47
2022/10/24 06:15:37;;;;;;;6.13;2.20;;;;;;;16.60;100.00;98084.19;4137324;28;20231;-48
2022/10/24 06:17:39;;;;;;;6.18;1.95;;;;;;;16.59;100.00;98071.50;4118463;28;20297;-50
2022/10/24 06:19:40;;;;;;;3.22;1.90;;;;;;;16.49;100.00;98066.13;4121665;28;20217;-48
2022/10/24 06:21:42;;;;;;;3.55;1.58;;;;;;;16.45;100.00;98067.88;4119798;28;20257;-47
2022/10/24 06:23:44;;;;;;;3.08;2.38;;;;;;;16.46;100.00;98063.97;4105076;28;20208;-49
2022/10/24 06:25:46;;;;;;;9.15;2.22;;;;;;;16.45;100.00;98062.34;4112429;28;20354;-48
2022/10/24 06:27:47;;;;;;;4.85;2.17;;;;;;;16.47;100.00;98062.84;4115473;28;20210;-49
2022/10/24 06:29:49;;;;;;;6.32;2.15;;;;;;;16.45;100.00;98070.63;4131625;28;20205;-49
2022/10/24 06:31:51;;;;;;;3.35;2.55;;;;;;;16.50;100.00;98084.34;4117331;28;20217;-48
2022/10/24 06:33:54;;;;;;;2.30;2.00;;;;;;;16.47;100.00;98073.91;4122475;28;20234;-48
2022/10/24 06:36:00;;;;;;;3.70;2.13;;;;;;;16.53;100.00;98072.72;4122264;28;20690;-48
2022/10/24 06:38:02;;;;;;;4.07;2.45;;;;;;;16.57;100.00;98079.25;4126979;28;20242;-48
2022/10/24 06:40:04;;;;;;;4.47;2.28;;;;;;;16.53;100.00;98081.00;4118446;28;20282;-47
2022/10/24 06:42:05;;;;;;;3.38;2.08;;;;;;;16.54;100.00;98095.63;4122304;28;20234;-48
2022/10/24 06:44:07;;;;;;;5.07;3.50;;;;;;;16.53;100.00;98094.81;4139911;28;20209;-47
2022/10/24 06:46:14;;;;;;;4.65;3.15;;;;;;;16.55;100.00;98084.28;4122583;28;20226;-48
2022/10/24 06:48:16;;;;;;;7.07;3.00;;;;;;;16.57;100.00;98095.03;4136142;28;20205;-48
2022/10/24 06:50:17;;;;;;;12.57;2.60;;;;;;;16.65;100.00;98099.88;4120735;28;20198;-48
2022/10/24 06:52:19;;;;;;;8.40;2.92;;;;;;;16.64;100.00;98090.75;4126729;28;20298;-49
2022/10/24 06:54:21;;;;;;;4.63;2.60;;;;;;;16.63;100.00;98100.16;4126146;28;20206;-47
2022/10/24 06:56:26;;;;;;;5.85;2.30;;;;;;;16.55;100.00;98087.03;4125983;28;20277;-47
2022/10/24 06:58:36;;;;;;;2.65;2.45;;;;;;;16.62;100.00;98087.47;4119980;28;20214;-47
2022/10/24 07:00:38;;;;;;;7.53;3.25;;;;;;;16.65;100.00;98086.06;4117582;28;20201;-48
2022/10/24 07:02:39;;;;;;;4.28;2.58;;;;;;;16.67;100.00;98086.56;4119830;28;20269;-47
2022/10/24 07:04:41;;;;;;;4.30;2.50;;;;;;;16.61;100.00;98096.91;4118460;28;20207;-47
2022/10/24 07:06:43;;;;;;;6.38;2.08;;;;;;;16.65;100.00;98092.41;4095550;28;20317;-47
2022/10/24 07:08:45;;;;;;;5.25;2.08;;;;;;;16.61;100.00;98091.38;4135698;28;20722;-48
2022/10/24 07:10:47;;;;;;;3.00;1.85;;;;;;;16.61;100.00;98105.19;4119302;28;20218;-47
2022/10/24 07:12:49;;;;;;;2.13;1.80;;;;;;;16.62;100.00;98109.59;4122767;28;20210;-47
2022/10/24 07:14:51;;;;;;;3.92;2.00;;;;;;;16.70;100.00;98116.38;4138991;28;20237;-47
2022/10/24 07:16:52;;;;;;;6.43;3.63;;;;;;;16.67;100.00;98117.81;4120947;28;20233;-47
2022/10/24 07:18:54;;;;;;;2.88;2.45;;;;;;;16.66;100.00;98124.47;4121197;28;20238;-47
2022/10/24 07:21:08;;;;;;;3.33;1.70;;;;;;;16.70;100.00;98138.50;4121055;28;20199;-48
2022/10/24 07:23:10;;;;;;;3.58;2.08;;;;;;;16.69;100.00;98132.13;4100756;28;20214;-47
2022/10/24 07:25:14;;;;;;;3.58;2.15;;;;;;;16.69;100.00;98134.91;4110336;28;20236;-47
2022/10/24 07:27:16;;;;;;;6.55;2.85;;;;;;;16.71;100.00;98135.44;4100351;28;20207;-48
2022/10/24 07:29:20;;;;;;;3.33;2.47;;;;;;;16.75;100.00;98136.47;4117052;28;20736;-47
2022/10/24 07:31:24;;;;;;;4.65;2.72;;;;;;;16.75;100.00;98142.00;4135630;28;20699;-47
2022/10/24 07:33:27;;;;;;;3.00;2.05;;;;;;;16.72;100.00;98148.13;4134118;28;20209;-47
2022/10/24 07:35:28;;;;;;;3.60;2.08;;;;;;;16.72;100.00;98153.66;4124302;28;20233;-49
2022/10/24 07:37:30;;;;;;;2.83;1.63;;;;;;;16.74;100.00;98151.41;4123673;28;20305;-47
2022/10/24 07:39:32;;;;;;;3.65;1.90;;;;;;;16.79;100.00;98148.59;4120533;28;20292;-47
2022/10/24 07:41:36;;;;;;;3.45;2.58;;;;;;;16.81;100.00;98157.38;4117719;28;20206;-47
2022/10/24 07:43:38;;;;;;;2.30;1.55;;;;;;;16.76;100.00;98154.69;4116309;28;20235;-47
2022/10/24 07:45:40;;;;;;;2.05;1.65;;;;;;;16.77;100.00;98150.81;4104315;28;20231;-47
2022/10/24 07:47:42;;;;;;;8.65;2.75;;;;;;;16.83;100.00;98152.38;4125589;28;20903;-47
2022/10/24 07:49:44;;;;;;;3.72;1.60;;;;;;;16.92;100.00;98147.84;4113570;28;20219;-47
2022/10/24 07:51:46;;;;;;;2.97;2.30;;;;;;;16.96;100.00;98140.56;4118826;28;20301;-47
2022/10/24 07:53:48;;;;;;;3.83;1.88;;;;;;;16.99;99.48;98137.22;4120247;28;20332;-47
2022/10/24 07:55:49;;;;;;;1.75;1.58;;;;;;;17.05;98.37;98133.25;4122105;28;20225;-47
2022/10/24 07:57:51;;;;;;;9.68;3.67;;;;;;;17.08;97.49;98147.28;4123209;28;20679;-47
2022/10/24 07:59:53;;;;;;;6.35;1.83;;;;;;;17.11;97.61;98140.34;4118040;28;20635;-47
2022/10/24 08:01:57;;;;;;;9.68;2.47;;;;;;;17.09;97.96;98132.34;4096027;28;20239;-47
2022/10/24 08:03:59;;;;;;;2.05;1.90;;;;;;;17.12;97.99;98130.91;4104613;28;20218;-47
2022/10/24 08:06:08;;;;;;;6.05;1.88;;;;;;;17.15;96.99;98130.31;4121668;28;20257;-48
2022/10/24 08:08:09;;;;;;;2.47;1.25;;;;;;;17.15;97.23;98133.06;4117094;28;20206;-47
2022/10/24 08:10:32;;;;;;;2.53;1.40;;;;;;;17.23;96.45;98121.31;4117671;28;20304;-48
2022/10/24 08:12:36;;;;;;;2.30;1.20;;;;;;;17.24;96.56;98117.41;4107233;28;20210;-48
2022/10/24 08:14:40;;;;;;;2.05;1.17;;;;;;;17.25;95.56;98116.31;4119458;28;20657;-47
2022/10/24 08:16:41;;;;;;;3.90;1.13;;;;;;;17.27;95.86;98123.19;4116708;28;20746;-47
2022/10/24 08:18:47;;;;;;;4.05;1.60;;;;;;;17.29;95.86;98118.19;4135106;28;20323;-48
2022/10/24 08:21:04;;;;;;;2.95;1.45;;;;;;;17.31;94.50;98121.44;4115781;28;20657;-47
2022/10/24 08:23:08;;;;;;;3.95;1.55;;;;;;;17.36;94.59;98124.13;4119256;28;20237;-47
2022/10/24 08:25:10;;;;;;;5.68;2.15;;;;;;;17.46;93.91;98125.94;4136702;28;21740;-47
2022/10/24 08:27:12;;;;;;;2.60;1.20;;;;;;;17.68;92.56;98124.16;4111839;28;20207;-48
2022/10/24 08:29:20;;;;;;;2.35;1.52;;;;;;;17.77;92.66;98115.94;4136892;28;20878;-47
2022/10/24 08:31:24;;;;;;;2.08;1.52;;;;;;;17.83;91.25;98131.31;4119043;28;20214;-48
2022/10/24 08:33:25;;;;;;;1.20;1.00;;;;;;;17.90;91.06;98128.97;4118677;28;20735;-47
2022/10/24 08:35:27;;;;;;;3.25;1.73;;;;;;;18.17;89.88;98120.66;4122430;28;20272;-47
2022/10/24 08:37:29;;;;;;;1.20;1.10;;;;;;;18.46;89.14;98129.50;4120568;28;20210;-48
2022/10/24 08:39:34;;;;;;;1.83;1.52;;;;;;;18.81;86.68;98128.72;4109886;28;20210;-47
2022/10/24 08:41:38;;;;;;;2.88;1.40;;;;;;;19.13;85.39;98125.72;4118599;28;20217;-47
2022/10/24 08:43:43;;;;;;;1.70;1.25;;;;;;;19.53;84.37;98113.63;4114114;28;20224;-47
2022/10/24 08:46:06;;;;;;;5.50;1.10;;;;;;;20.02;82.17;98118.94;4136775;28;20245;-47
2022/10/24 08:48:12;;;;;;;2.05;1.60;;;;;;;20.09;80.01;98124.88;4120344;28;20228;-49
2022/10/24 08:50:32;;;;;;;2.35;1.05;;;;;;;19.80;79.36;98117.06;4118379;28;20261;-49
2022/10/24 08:52:35;;;;;;;3.53;1.63;;;;;;;19.85;79.85;98118.88;4118262;28;20230;-48
2022/10/24 08:54:39;;;;;;;2.65;0.80;;;;;;;20.22;78.75;98119.22;4105625;28;20718;-47
2022/10/24 08:56:40;;;;;;;2.42;0.88;;;;;;;20.35;78.38;98125.81;4121996;28;20715;-47
2022/10/24 08:58:44;;;;;;;4.10;1.13;;;;;;;20.28;77.93;98117.13;4117939;28;20296;-48
2022/10/24 09:00:50;;;;;;;2.72;1.00;;;;;;;20.21;77.06;98111.22;4134694;28;20284;-47
2022/10/24 09:03:00;;;;;;;1.20;0.93;;;;;;;20.59;77.18;98106.75;4118750;28;20222;-48
2022/10/24 09:05:23;;;;;;;1.70;1.00;;;;;;;20.59;76.57;98112.31;4103608;28;20207;-48
2022/10/24 09:07:25;;;;;;;2.08;0.82;;;;;;;20.67;77.63;98119.84;4121343;28;20289;-48
2022/10/24 09:09:35;;;;;;;2.45;1.40;;;;;;;20.08;75.43;98112.16;4115791;28;20234;-47
2022/10/24 09:11:52;;;;;;;1.10;0.90;;;;;;;19.88;76.57;98124.63;4105113;28;20214;-48
2022/10/24 09:13:54;;;;;;;8.23;0.90;;;;;;;20.02;76.40;98122.56;4120184;28;20293;-47
2022/10/24 09:15:56;;;;;;;0.95;0.80;;;;;;;20.10;76.39;98127.34;4094530;28;20227;-46
2022/10/24 09:17:59;;;;;;;0.73;0.70;;;;;;;20.05;76.39;98119.16;4120348;28;20317;-46
2022/10/24 09:20:19;;;;;;;1.52;0.95;;;;;;;20.09;76.67;98131.28;4117277;28;20214;-46
2022/10/24 09:22:22;;;;;;;1.00;0.85;;;;;;;20.32;75.80;98137.56;4115053;28;20194;-46
2022/10/24 09:24:28;;;;;;;3.67;1.65;;;;;;;20.55;74.50;98133.53;4114039;28;20676;-46
2022/10/24 09:26:30;;;;;;;1.38;0.93;;;;;;;20.02;75.50;98122.56;4119552;28;20237;-47
2022/10/24 09:28:37;;;;;;;1.33;1.02;;;;;;;19.72;76.59;98137.25;4122107;28;20285;-46
2022/10/24 09:30:38;;;;;;;1.95;0.80;;;;;;;19.84;76.29;98131.13;4123027;28;20214;-46
2022/10/24 09:32:41;;;;;;;1.27;0.80;;;;;;;20.09;75.72;98136.00;4114920;28;20203;-45
2022/10/24 09:34:44;;;;;;;1.77;1.30;;;;;;;20.06;75.38;98133.88;4106866;28;20213;-45
2022/10/24 09:36:45;;;;;;;1.42;1.02;;;;;;;20.38;74.72;98128.75;4105452;28;20268;-46
2022/10/24 09:38:50;;;;;;;2.28;0.85;;;;;;;20.89;74.54;98136.41;4120863;28;20217;-46